createdAt,value
2019-01-24T00:01:07.551Z,63.93
2019-01-24T00:03:36.457Z,67.58
2019-01-24T00:06:05.629Z,59.15
2019-01-24T00:08:34.592Z,63.50
2019-01-24T00:11:03.496Z,65.67
2019-01-24T00:13:32.414Z,64.55
2019-01-24T00:16:01.749Z,64.60
2019-01-24T00:18:30.933Z,59.60
2019-01-24T00:20:59.914Z,68.25
2019-01-24T00:23:28.810Z,64.72
2019-01-24T00:25:57.790Z,66.93
2019-01-24T00:28:26.652Z,66.30
2019-01-24T00:30:55.680Z,73.92
2019-01-24T00:33:24.882Z,65.57
2019-01-24T00:35:53.802Z,65.28
2019-01-24T00:38:22.770Z,68.52
2019-01-24T00:40:51.753Z,66.95
2019-01-24T00:43:20.733Z,68.42
2019-01-24T00:45:49.709Z,61.45
2019-01-24T00:48:18.553Z,67.70
2019-01-24T00:50:47.461Z,66.10
2019-01-24T00:53:16.304Z,58.42
2019-01-24T00:55:45.225Z,61.80
2019-01-24T00:58:14.209Z,63.98
2019-01-24T01:00:43.180Z,62.03
2019-01-24T01:03:12.101Z,62.78
2019-01-24T01:05:41.019Z,69.93
2019-01-24T01:08:10.093Z,70.40
2019-01-24T01:10:39.253Z,62.83
2019-01-24T01:13:08.236Z,66.20
2019-01-24T01:15:37.249Z,71.62
2019-01-24T01:18:06.240Z,62.13
2019-01-24T01:20:35.093Z,64.05
2019-01-24T01:23:04.088Z,65.00
2019-01-24T01:25:33.165Z,66.45
2019-01-24T01:28:02.144Z,67.72
2019-01-24T01:30:31.217Z,66.90
2019-01-24T01:33:00.194Z,64.72
2019-01-24T01:35:29.252Z,62.13
2019-01-24T01:37:58.233Z,62.00
2019-01-24T01:40:27.233Z,60.43
2019-01-24T01:42:56.145Z,59.40
2019-01-24T01:45:25.075Z,64.35
2019-01-24T01:47:53.976Z,70.83
2019-01-24T01:50:24.552Z,69.00
2019-01-24T01:52:53.536Z,63.28
2019-01-24T01:55:22.541Z,67.00
2019-01-24T01:57:51.431Z,63.75
2019-01-24T02:00:22.228Z,59.45
2019-01-24T02:02:51.585Z,65.10
2019-01-24T02:05:20.556Z,69.00
2019-01-24T02:07:50.241Z,64.58
2019-01-24T02:10:21.116Z,68.00
2019-01-24T02:12:50.296Z,69.03
2019-01-24T02:15:19.896Z,62.67
2019-01-24T02:17:49.171Z,62.57
2019-01-24T02:20:19.905Z,61.65
2019-01-24T02:22:48.915Z,66.42
2019-01-24T02:25:18.103Z,64.82
2019-01-24T02:27:47.348Z,61.60
2019-01-24T02:30:25.545Z,59.57
2019-01-24T02:32:54.800Z,63.68
2019-01-24T02:35:24.162Z,62.08
2019-01-24T02:37:53.290Z,65.20
2019-01-24T02:40:22.281Z,60.43
2019-01-24T02:42:51.301Z,60.23
2019-01-24T02:45:21.552Z,65.05
2019-01-24T02:47:50.845Z,61.58
2019-01-24T02:50:20.380Z,64.00
2019-01-24T02:52:49.614Z,66.25
2019-01-24T02:55:18.808Z,63.85
2019-01-24T02:57:47.804Z,62.40
2019-01-24T03:00:21.293Z,62.88
2019-01-24T03:02:50.988Z,61.60
2019-01-24T03:05:21.914Z,62.00
2019-01-24T03:07:51.154Z,65.57
2019-01-24T03:10:20.183Z,65.85
2019-01-24T03:12:49.999Z,60.90
2019-01-24T03:15:20.089Z,64.67
2019-01-24T03:17:49.400Z,67.32
2019-01-24T03:20:18.624Z,67.08
2019-01-24T03:22:47.848Z,63.65
2019-01-24T03:25:17.459Z,62.35
2019-01-24T03:27:46.797Z,70.87
2019-01-24T03:30:18.143Z,67.92
2019-01-24T03:32:47.186Z,66.33
2019-01-24T03:35:21.450Z,60.58
2019-01-24T03:37:50.513Z,68.83
2019-01-24T03:40:19.536Z,65.97
2019-01-24T03:43:07.633Z,67.50
2019-01-24T03:45:36.586Z,64.80
2019-01-24T03:48:05.817Z,67.12
2019-01-24T03:50:34.793Z,66.83
2019-01-24T03:53:03.846Z,67.25
2019-01-24T03:55:32.850Z,64.95
2019-01-24T03:58:01.781Z,75.45
2019-01-24T04:00:30.778Z,78.87
2019-01-24T04:02:59.811Z,70.87
2019-01-24T04:05:28.886Z,70.65
2019-01-24T04:07:57.808Z,74.70
2019-01-24T04:10:27.013Z,82.60
2019-01-24T04:12:56.517Z,78.52
2019-01-24T04:15:26.556Z,67.78
2019-01-24T04:17:55.588Z,70.97
2019-01-24T04:20:24.917Z,73.03
2019-01-24T04:22:53.823Z,67.22
2019-01-24T04:25:23.486Z,69.87
2019-01-24T04:27:52.473Z,70.78
2019-01-24T04:30:23.005Z,69.65
2019-01-24T04:32:51.992Z,70.22
2019-01-24T04:35:21.554Z,73.50
2019-01-24T04:37:51.188Z,69.62
2019-01-24T04:40:20.725Z,73.42
2019-01-24T04:42:49.735Z,72.82
2019-01-24T04:45:18.761Z,75.45
2019-01-24T04:47:47.759Z,75.15
2019-01-24T04:50:17.614Z,74.20
2019-01-24T04:52:47.270Z,70.40
2019-01-24T04:55:17.947Z,81.17
2019-01-24T04:57:47.299Z,79.90
2019-01-24T05:00:21.639Z,86.53
2019-01-24T05:02:50.647Z,86.00
2019-01-24T05:05:27.204Z,87.92
2019-01-24T05:07:50.993Z,86.00
2019-01-24T05:10:20.323Z,98.67
2019-01-24T05:12:49.636Z,94.22
2019-01-24T05:15:19.956Z,83.55
2019-01-24T05:17:48.969Z,91.87
2019-01-24T05:20:17.961Z,93.20
2019-01-24T05:22:47.195Z,94.30
2019-01-24T05:25:17.129Z,94.07
2019-01-24T05:27:46.367Z,96.45
2019-01-24T05:30:18.481Z,98.52
2019-01-24T05:32:47.393Z,95.15
2019-01-24T05:35:16.393Z,87.97
2019-01-24T05:37:45.704Z,81.33
2019-01-24T05:40:14.706Z,76.00
2019-01-24T05:42:43.699Z,77.78
2019-01-24T05:45:12.814Z,77.23
2019-01-24T05:47:41.721Z,78.28
2019-01-24T05:50:10.788Z,69.37
2019-01-24T05:52:39.710Z,75.20
2019-01-24T05:55:09.322Z,78.62
2019-01-24T05:57:38.396Z,80.80
2019-01-24T06:00:09.909Z,78.72
2019-01-24T06:02:38.937Z,84.22
2019-01-24T06:05:09.038Z,83.55
2019-01-24T06:07:57.277Z,74.15
2019-01-24T06:10:26.305Z,92.10
2019-01-24T06:12:55.340Z,83.87
2019-01-24T06:15:24.427Z,94.87
2019-01-24T06:18:02.401Z,93.00
2019-01-24T06:20:31.576Z,86.82
2019-01-24T06:23:00.913Z,99.00
2019-01-24T06:25:29.953Z,94.67
2019-01-24T06:27:59.013Z,82.40
2019-01-24T06:30:28.076Z,89.25
2019-01-24T06:32:57.448Z,89.52
2019-01-24T06:35:26.509Z,78.83
2019-01-24T06:37:55.493Z,76.28
2019-01-24T06:40:24.558Z,81.35
2019-01-24T06:42:53.599Z,79.87
2019-01-24T06:45:22.997Z,82.92
2019-01-24T06:47:52.453Z,81.72
2019-01-24T06:50:21.536Z,86.60
2019-01-24T06:52:50.912Z,84.28
2019-01-24T06:55:25.961Z,94.60
2019-01-24T06:57:55.047Z,87.02
2019-01-24T07:00:24.108Z,85.65
2019-01-24T07:02:53.438Z,89.35
2019-01-24T07:05:22.505Z,92.97
2019-01-24T07:07:51.539Z,88.03
2019-01-24T07:10:21.212Z,86.08
2019-01-24T07:12:50.275Z,75.78
2019-01-24T07:15:20.731Z,95.60
2019-01-24T07:17:50.586Z,86.40
2019-01-24T07:20:19.795Z,79.53
2019-01-24T07:22:48.856Z,79.58
2019-01-24T07:25:20.422Z,82.12
2019-01-24T07:27:49.482Z,93.27
2019-01-24T07:30:18.791Z,80.50
2019-01-24T07:32:48.731Z,81.37
2019-01-24T07:35:17.830Z,85.67
2019-01-24T07:37:46.879Z,90.20
2019-01-24T07:40:16.928Z,89.17
2019-01-24T07:42:45.999Z,85.38
2019-01-24T07:45:17.583Z,92.20
2019-01-24T07:47:46.643Z,96.57
2019-01-24T07:50:15.995Z,82.60
2019-01-24T07:52:45.416Z,83.20
2019-01-24T07:55:14.745Z,78.00
2019-01-24T07:57:43.797Z,76.47
2019-01-24T08:00:16.364Z,83.58
2019-01-24T08:02:45.399Z,75.03
2019-01-24T08:05:14.750Z,79.82
2019-01-24T08:07:43.789Z,81.85
2019-01-24T08:10:14.187Z,76.97
2019-01-24T08:12:43.243Z,79.82
2019-01-24T08:15:13.786Z,80.03
2019-01-24T08:17:43.358Z,85.87
2019-01-24T08:20:15.191Z,79.25
2019-01-24T08:22:44.591Z,73.97
2019-01-24T08:25:14.050Z,82.02
2019-01-24T08:27:43.101Z,79.53
2019-01-24T08:30:23.318Z,77.40
2019-01-24T08:32:52.359Z,81.03
2019-01-24T08:35:21.768Z,80.40
2019-01-24T08:37:51.558Z,75.55
2019-01-24T08:40:20.591Z,78.83
2019-01-24T08:42:49.827Z,80.93
2019-01-24T08:45:19.223Z,83.05
2019-01-24T08:47:48.683Z,78.92
2019-01-24T08:50:19.159Z,74.27
2019-01-24T08:52:48.481Z,82.62
2019-01-24T08:55:29.670Z,84.97
2019-01-24T08:57:58.732Z,85.17
2019-01-24T09:00:27.796Z,82.35
2019-01-24T09:02:56.830Z,79.42
2019-01-24T09:05:26.182Z,80.85
2019-01-24T09:07:55.223Z,80.38
2019-01-24T09:10:27.127Z,79.00
2019-01-24T09:12:56.529Z,84.70
2019-01-24T09:15:27.279Z,74.40
2019-01-24T09:17:56.320Z,79.20
2019-01-24T09:20:25.359Z,71.53
2019-01-24T09:22:55.332Z,81.32
2019-01-24T09:25:24.829Z,76.57
2019-01-24T09:27:53.834Z,76.75
2019-01-24T09:30:24.682Z,74.90
2019-01-24T09:32:53.765Z,84.28
2019-01-24T09:35:23.034Z,73.20
2019-01-24T09:37:56.740Z,77.97
2019-01-24T09:40:26.115Z,77.95
2019-01-24T09:42:55.395Z,79.35
2019-01-24T09:45:26.348Z,76.72
2019-01-24T09:47:57.052Z,79.82
2019-01-24T09:50:26.495Z,73.45
2019-01-24T09:52:55.903Z,79.50
2019-01-24T09:55:26.117Z,74.10
2019-01-24T09:57:55.194Z,70.30
2019-01-24T10:00:32.129Z,77.25
2019-01-24T10:03:01.292Z,83.27
2019-01-24T10:05:30.409Z,84.72
2019-01-24T10:07:59.459Z,65.87
2019-01-24T10:10:29.108Z,83.20
2019-01-24T10:12:58.556Z,70.05
2019-01-24T10:15:46.711Z,73.72
2019-01-24T10:18:21.471Z,73.72
2019-01-24T10:20:47.398Z,78.95
2019-01-24T10:23:16.406Z,78.70
2019-01-24T10:25:45.440Z,73.20
2019-01-24T10:28:14.475Z,76.80
2019-01-24T10:30:43.889Z,72.03
2019-01-24T10:33:12.911Z,72.32
2019-01-24T10:35:41.973Z,80.40
2019-01-24T10:38:11.029Z,75.43
2019-01-24T10:40:40.088Z,78.85
2019-01-24T10:43:09.166Z,75.05
2019-01-24T10:45:38.563Z,70.17
2019-01-24T10:48:07.656Z,73.78
2019-01-24T10:50:36.962Z,68.72
2019-01-24T10:53:06.252Z,79.53
2019-01-24T10:55:35.558Z,72.82
2019-01-24T10:58:05.995Z,70.00
2019-01-24T11:00:37.913Z,65.90
2019-01-24T11:03:08.867Z,72.80
2019-01-24T11:05:38.491Z,77.30
2019-01-24T11:08:07.957Z,69.50
2019-01-24T11:10:37.260Z,74.62
2019-01-24T11:13:06.399Z,72.22
2019-01-24T11:15:35.810Z,65.45
2019-01-24T11:18:06.104Z,67.30
2019-01-24T11:20:35.533Z,64.20
2019-01-24T11:23:05.033Z,66.80
2019-01-24T11:25:34.182Z,65.37
2019-01-24T11:28:03.274Z,66.90
2019-01-24T11:30:32.515Z,66.15
2019-01-24T11:33:01.937Z,70.60
2019-01-24T11:35:32.889Z,68.75
2019-01-24T11:38:01.955Z,68.83
2019-01-24T11:40:31.004Z,67.55
2019-01-24T11:43:00.679Z,58.98
2019-01-24T11:45:32.610Z,64.62
2019-01-24T11:48:01.685Z,66.07
2019-01-24T11:50:31.067Z,67.62
2019-01-24T11:53:00.455Z,66.70
2019-01-24T11:55:29.945Z,71.45
2019-01-24T11:57:58.990Z,73.90
2019-01-24T12:00:52.661Z,68.40
2019-01-24T12:03:22.013Z,67.72
2019-01-24T12:05:51.080Z,73.75
2019-01-24T12:08:20.197Z,67.62
2019-01-24T12:10:49.249Z,74.80
2019-01-24T12:13:18.300Z,70.20
2019-01-24T12:15:47.352Z,64.80
2019-01-24T12:18:17.109Z,77.47
2019-01-24T12:20:46.128Z,76.03
2019-01-24T12:23:15.204Z,73.47
2019-01-24T12:25:44.252Z,71.47
2019-01-24T12:28:13.347Z,72.08
2019-01-24T12:30:42.389Z,73.37
2019-01-24T12:33:11.466Z,76.05
2019-01-24T12:35:40.783Z,69.00
2019-01-24T12:38:10.488Z,71.30
2019-01-24T12:40:39.546Z,66.45
2019-01-24T12:43:09.010Z,78.45
2019-01-24T12:45:38.545Z,74.75
2019-01-24T12:48:08.071Z,79.87
2019-01-24T12:50:37.540Z,77.55
2019-01-24T12:53:07.960Z,78.80
2019-01-24T12:55:36.981Z,79.00
2019-01-24T12:58:06.574Z,77.00
2019-01-24T13:00:37.893Z,79.22
2019-01-24T13:03:07.299Z,88.85
2019-01-24T13:05:36.386Z,78.72
2019-01-24T13:08:06.175Z,84.45
2019-01-24T13:10:35.219Z,80.10
2019-01-24T13:13:05.556Z,79.12
2019-01-24T13:15:34.919Z,86.00
2019-01-24T13:18:04.463Z,89.17
2019-01-24T13:20:33.483Z,80.65
2019-01-24T13:23:02.532Z,78.80
2019-01-24T13:25:33.541Z,81.33
2019-01-24T13:28:03.300Z,81.95
2019-01-24T13:30:33.914Z,76.05
2019-01-24T13:33:03.566Z,77.27
2019-01-24T13:35:32.607Z,84.30
2019-01-24T13:38:01.680Z,74.65
2019-01-24T13:40:31.806Z,73.33
2019-01-24T13:43:01.881Z,77.80
2019-01-24T13:45:33.509Z,78.17
2019-01-24T13:48:02.900Z,80.92
2019-01-24T13:50:32.406Z,81.22
2019-01-24T13:53:01.428Z,79.40
2019-01-24T13:55:30.479Z,81.60
2019-01-24T13:57:59.816Z,76.80
2019-01-24T14:00:37.087Z,79.32
2019-01-24T14:03:34.357Z,74.03
2019-01-24T14:06:03.712Z,74.10
2019-01-24T14:08:32.688Z,72.27
2019-01-24T14:11:01.771Z,72.35
2019-01-24T14:13:31.447Z,76.87
2019-01-24T14:16:00.874Z,76.07
2019-01-24T14:18:29.924Z,75.62
2019-01-24T14:20:59.013Z,72.95
2019-01-24T14:23:28.041Z,69.47
2019-01-24T14:25:57.077Z,74.30
2019-01-24T14:28:26.456Z,73.75
2019-01-24T14:30:55.526Z,70.15
2019-01-24T14:33:24.559Z,68.45
2019-01-24T14:35:54.131Z,70.70
2019-01-24T14:38:23.552Z,66.25
2019-01-24T14:40:52.659Z,67.00
2019-01-24T14:43:21.675Z,65.40
2019-01-24T14:45:51.036Z,65.83
2019-01-24T14:48:20.075Z,61.35
2019-01-24T14:50:49.119Z,55.88
2019-01-24T14:53:18.428Z,62.90
2019-01-24T14:55:47.483Z,62.15
2019-01-24T14:58:16.565Z,62.20
2019-01-24T15:00:55.477Z,60.30
2019-01-24T15:03:24.520Z,63.42
2019-01-24T15:05:53.835Z,66.40
2019-01-24T15:08:23.166Z,62.70
2019-01-24T15:10:52.204Z,65.70
2019-01-24T15:13:21.223Z,67.78
2019-01-24T15:15:50.278Z,67.10
2019-01-24T15:18:19.303Z,78.30
2019-01-24T15:20:48.409Z,81.35
2019-01-24T15:23:17.447Z,81.25
2019-01-24T15:25:46.499Z,75.95
2019-01-24T15:28:15.523Z,79.40
2019-01-24T15:30:44.601Z,85.40
2019-01-24T15:33:13.674Z,76.67
2019-01-24T15:35:42.711Z,77.62
2019-01-24T15:38:11.766Z,71.77
2019-01-24T15:40:40.827Z,71.28
2019-01-24T15:43:09.862Z,79.72
2019-01-24T15:45:39.219Z,73.33
2019-01-24T15:48:08.293Z,70.25
2019-01-24T15:50:37.981Z,67.95
2019-01-24T15:53:07.020Z,65.30
2019-01-24T15:55:36.068Z,68.87
2019-01-24T15:58:05.315Z,66.85
2019-01-24T16:00:34.688Z,68.90
2019-01-24T16:03:03.852Z,63.23
2019-01-24T16:05:33.181Z,73.70
2019-01-24T16:08:02.754Z,61.92
2019-01-24T16:10:31.794Z,66.95
2019-01-24T16:13:01.200Z,65.57
2019-01-24T16:15:32.393Z,60.80
2019-01-24T16:18:01.782Z,61.13
2019-01-24T16:20:31.663Z,58.85
2019-01-24T16:23:00.728Z,63.10
2019-01-24T16:25:31.040Z,56.60
2019-01-24T16:28:00.097Z,59.45
2019-01-24T16:30:31.024Z,59.27
2019-01-24T16:33:00.292Z,56.03
2019-01-24T16:35:29.783Z,54.80
2019-01-24T16:37:58.876Z,60.40
2019-01-24T16:40:28.624Z,57.23
2019-01-24T16:42:57.741Z,62.45
2019-01-24T16:45:28.331Z,62.25
2019-01-24T16:47:57.851Z,62.25
2019-01-24T16:50:27.649Z,62.13
2019-01-24T16:52:57.041Z,57.37
2019-01-24T16:55:26.053Z,63.52
2019-01-24T16:57:55.680Z,66.02
2019-01-24T17:00:44.341Z,65.83
2019-01-24T17:03:13.559Z,63.25
2019-01-24T17:05:42.655Z,59.93
2019-01-24T17:08:16.513Z,59.40
2019-01-24T17:10:42.545Z,62.20
2019-01-24T17:13:11.591Z,63.10
2019-01-24T17:15:42.187Z,70.42
2019-01-24T17:18:11.397Z,59.73
2019-01-24T17:20:40.459Z,59.58
2019-01-24T17:23:09.515Z,60.88
2019-01-24T17:25:38.588Z,61.90
2019-01-24T17:28:07.782Z,70.85
2019-01-24T17:30:36.883Z,67.03
2019-01-24T17:33:07.887Z,66.65
2019-01-24T17:35:37.167Z,76.10
2019-01-24T17:38:32.616Z,67.45
2019-01-24T17:41:23.978Z,66.22
2019-01-24T17:43:57.088Z,67.42
2019-01-24T17:46:30.231Z,75.42
2019-01-24T17:49:04.506Z,73.85
2019-01-24T17:51:36.418Z,61.50
2019-01-24T17:54:08.257Z,61.18
2019-01-24T17:56:41.040Z,62.20
2019-01-24T17:59:14.107Z,72.75
2019-01-24T18:01:47.777Z,68.60
2019-01-24T18:04:21.772Z,64.10
2019-01-24T18:06:54.588Z,62.50
2019-01-24T18:09:28.257Z,58.52
2019-01-24T18:12:01.673Z,61.68
2019-01-24T18:14:34.645Z,66.57
2019-01-24T18:17:07.912Z,61.65
2019-01-24T18:19:41.017Z,67.10
2019-01-24T18:22:14.061Z,61.48
2019-01-24T18:24:46.995Z,65.22
2019-01-24T18:27:19.739Z,64.27
2019-01-24T18:29:53.899Z,67.43
2019-01-24T18:32:27.571Z,65.27
2019-01-24T18:35:18.880Z,68.07
2019-01-24T18:37:52.397Z,66.28
2019-01-24T18:40:26.782Z,67.70
2019-01-24T18:42:59.837Z,72.50
2019-01-24T18:45:34.931Z,67.10
2019-01-24T18:48:08.996Z,63.05
2019-01-24T18:50:42.678Z,64.25
2019-01-24T18:53:16.987Z,65.62
2019-01-24T18:55:49.266Z,62.78
2019-01-24T18:58:22.621Z,71.25
2019-01-24T19:00:56.544Z,73.87
2019-01-24T19:03:30.323Z,69.45
2019-01-24T19:06:03.980Z,68.17
2019-01-24T19:08:37.010Z,68.47
2019-01-24T19:11:28.233Z,60.73
2019-01-24T19:14:02.677Z,69.27
2019-01-24T19:16:36.525Z,66.87
2019-01-24T19:19:10.217Z,66.22
2019-01-24T19:21:43.255Z,62.93
2019-01-24T19:24:17.341Z,66.45
2019-01-24T19:26:51.088Z,60.67
2019-01-24T19:29:25.450Z,68.20
2019-01-24T19:31:59.515Z,66.80
2019-01-24T19:34:33.492Z,71.65
2019-01-24T19:37:08.138Z,71.00
2019-01-24T19:39:42.061Z,71.62
2019-01-24T19:42:16.336Z,66.97
2019-01-24T19:44:51.675Z,78.07
2019-01-24T19:47:26.157Z,77.15
2019-01-24T19:50:18.389Z,76.02
2019-01-24T19:52:52.275Z,69.57
2019-01-24T19:55:26.234Z,74.40
2019-01-24T19:58:00.652Z,73.90
2019-01-24T20:00:35.193Z,77.10
2019-01-24T20:03:09.424Z,69.40
2019-01-24T20:05:43.462Z,72.53
2019-01-24T20:08:17.206Z,83.67
2019-01-24T20:10:52.977Z,80.97
2019-01-24T20:13:26.837Z,70.50
2019-01-24T20:16:01.251Z,72.32
2019-01-24T20:18:35.248Z,75.15
2019-01-24T20:21:08.537Z,80.00
2019-01-24T20:23:41.852Z,72.15
2019-01-24T20:26:14.887Z,87.55
2019-01-24T20:28:48.332Z,76.30
2019-01-24T20:31:21.638Z,68.67
2019-01-24T20:33:55.548Z,74.57
2019-01-24T20:36:29.456Z,70.42
2019-01-24T20:39:07.308Z,67.05
2019-01-24T20:41:38.781Z,66.40
2019-01-24T20:44:13.489Z,70.65
2019-01-24T20:46:46.567Z,67.37
2019-01-24T20:49:19.500Z,72.27
2019-01-24T20:51:52.624Z,63.55
2019-01-24T20:54:25.702Z,67.40
2019-01-24T20:56:58.021Z,76.80
2019-01-24T20:59:30.577Z,68.05
2019-01-24T21:02:02.697Z,73.15
2019-01-24T21:04:35.526Z,69.87
2019-01-24T21:07:09.963Z,68.60
2019-01-24T21:09:42.284Z,66.82
2019-01-24T21:12:14.603Z,66.80
2019-01-24T21:14:47.565Z,69.45
2019-01-24T21:17:20.015Z,65.95
2019-01-24T21:19:52.614Z,66.97
2019-01-24T21:22:25.472Z,67.90
2019-01-24T21:24:57.944Z,67.58
2019-01-24T21:27:29.723Z,62.98
2019-01-24T21:30:02.244Z,68.30
2019-01-24T21:32:33.752Z,64.97
2019-01-24T21:35:05.647Z,66.12
2019-01-24T21:37:36.953Z,61.10
2019-01-24T21:40:08.687Z,64.65
2019-01-24T21:42:39.152Z,62.80
2019-01-24T21:45:12.433Z,66.72
2019-01-24T21:47:42.724Z,67.12
2019-01-24T21:50:15.887Z,61.90
2019-01-24T21:52:47.066Z,72.60
2019-01-24T21:55:19.963Z,69.63
2019-01-24T21:57:51.836Z,64.87
2019-01-24T22:00:25.177Z,67.58
2019-01-24T22:02:57.308Z,67.53
2019-01-24T22:05:28.723Z,73.53
2019-01-24T22:08:17.667Z,59.23
2019-01-24T22:10:47.594Z,75.47
2019-01-24T22:13:18.214Z,68.27
2019-01-24T22:15:48.615Z,67.15
2019-01-24T22:18:18.012Z,63.58
2019-01-24T22:20:47.287Z,72.60
2019-01-24T22:23:16.588Z,68.07
2019-01-24T22:25:45.680Z,66.75
2019-01-24T22:28:14.734Z,64.53
2019-01-24T22:30:48.427Z,62.03
2019-01-24T22:33:17.508Z,65.65
2019-01-24T22:35:46.565Z,67.32
2019-01-24T22:38:16.016Z,67.12
2019-01-24T22:40:45.967Z,67.78
2019-01-24T22:43:15.015Z,71.57
2019-01-24T22:45:44.037Z,68.10
2019-01-24T22:48:13.080Z,71.20
2019-01-24T22:50:42.033Z,72.08
2019-01-24T22:53:11.123Z,65.47
2019-01-24T22:55:40.154Z,70.28
2019-01-24T22:58:09.182Z,62.63
2019-01-24T23:00:59.790Z,73.37
2019-01-24T23:03:38.737Z,68.00
2019-01-24T23:06:07.855Z,73.85
2019-01-24T23:08:36.879Z,72.92
2019-01-24T23:11:06.496Z,65.20
2019-01-24T23:13:35.542Z,77.30
2019-01-24T23:16:04.740Z,67.03
2019-01-24T23:18:33.795Z,70.50
2019-01-24T23:21:03.137Z,76.15
2019-01-24T23:23:32.185Z,68.83
2019-01-24T23:26:01.232Z,67.67
2019-01-24T23:28:30.320Z,72.30
2019-01-24T23:30:59.340Z,63.98
2019-01-24T23:33:28.454Z,76.27
2019-01-24T23:35:57.459Z,77.78
2019-01-24T23:38:26.507Z,70.67
2019-01-24T23:40:55.799Z,77.90
2019-01-24T23:43:24.861Z,75.35
2019-01-24T23:45:53.932Z,70.17
2019-01-24T23:48:23.015Z,77.32
2019-01-24T23:50:52.109Z,74.00
2019-01-24T23:53:21.204Z,76.35
2019-01-24T23:55:50.231Z,73.62
2019-01-24T23:58:19.479Z,75.30
